Time;durP1;ratioP1;P1;durP2;ratioP2;P2;SDS_P1;SDS_P2;PMS_P1;PMS_P2;Temp;Humidity;BMP_temperature;BMP_pressure;BME280_temperature;BME280_humidity;BME280_pressure;Samples;Min_cycle;Max_cycle;Signal;HPM_P1;HPM_P2
2023/09/27 00:00:09;;;;;;;8.65;4.70;;;15.40;99.90;;;;;;5039026;28;20112;-77
2023/09/27 00:02:36;;;;;;;8.20;4.72;;;15.40;99.90;;;;;;5039268;28;20032;-77
2023/09/27 00:05:06;;;;;;;7.20;3.85;;;15.30;99.90;;;;;;5040191;28;20017;-77
2023/09/27 00:07:35;;;;;;;4.93;3.80;;;15.20;99.90;;;;;;5039726;28;20029;-76
2023/09/27 00:10:01;;;;;;;8.38;3.70;;;15.20;99.90;;;;;;5039799;28;20025;-77
2023/09/27 00:12:27;;;;;;;7.68;4.65;;;15.10;99.90;;;;;;5039494;28;20029;-77
2023/09/27 00:14:53;;;;;;;6.35;4.38;;;15.10;99.90;;;;;;5039930;28;20025;-77
2023/09/27 00:17:19;;;;;;;10.52;4.65;;;15.10;99.90;;;;;;5039964;28;20025;-77
2023/09/27 00:19:45;;;;;;;6.00;4.03;;;15.00;99.90;;;;;;5039637;28;20028;-77
2023/09/27 00:22:10;;;;;;;10.60;4.80;;;14.90;99.90;;;;;;5038735;28;20028;-76
2023/09/27 00:24:36;;;;;;;6.90;4.63;;;14.80;99.90;;;;;;5039838;28;20021;-77
2023/09/27 00:27:02;;;;;;;8.07;4.03;;;14.70;99.90;;;;;;5038692;28;20024;-77
2023/09/27 00:29:27;;;;;;;6.22;3.78;;;14.70;99.90;;;;;;5038596;28;20034;-77
2023/09/27 00:31:53;;;;;;;5.13;3.85;;;14.70;99.90;;;;;;5039261;28;20022;-77
2023/09/27 00:34:18;;;;;;;9.90;4.28;;;14.70;99.90;;;;;;5039247;28;20201;-77
2023/09/27 00:36:44;;;;;;;9.18;4.85;;;14.80;99.90;;;;;;5038749;28;20028;-77
2023/09/27 00:39:09;;;;;;;6.75;4.53;;;14.70;99.90;;;;;;5038620;28;20104;-78
2023/09/27 00:41:35;;;;;;;6.80;4.85;;;14.60;99.90;;;;;;5039065;28;20075;-77
2023/09/27 00:44:00;;;;;;;13.57;4.25;;;14.60;99.90;;;;;;5038569;28;20090;-77
2023/09/27 00:46:26;;;;;;;6.28;4.18;;;14.70;99.90;;;;;;5038330;28;20052;-77
2023/09/27 00:48:52;;;;;;;6.43;4.15;;;14.60;99.90;;;;;;5038193;28;20079;-77
2023/09/27 00:51:18;;;;;;;6.65;3.78;;;14.50;99.90;;;;;;5037958;28;20025;-76
2023/09/27 00:53:45;;;;;;;6.53;4.03;;;14.50;99.90;;;;;;5038088;28;20021;-76
2023/09/27 00:56:10;;;;;;;6.78;3.88;;;14.60;99.90;;;;;;5039237;28;20088;-77
2023/09/27 00:58:37;;;;;;;7.10;4.38;;;14.50;99.90;;;;;;5038814;28;20061;-77
2023/09/27 01:01:03;;;;;;;13.27;5.18;;;14.60;99.90;;;;;;5038661;28;20025;-77
2023/09/27 01:03:28;;;;;;;7.68;4.63;;;14.70;99.90;;;;;;5037846;28;20075;-77
2023/09/27 01:05:54;;;;;;;6.18;3.97;;;14.60;99.90;;;;;;5038200;28;20048;-77
2023/09/27 01:08:21;;;;;;;5.70;3.70;;;14.50;99.90;;;;;;5036596;28;20021;-77
2023/09/27 01:10:47;;;;;;;6.20;3.03;;;14.40;99.90;;;;;;5037718;28;20021;-77
2023/09/27 01:13:13;;;;;;;5.85;3.50;;;14.40;99.90;;;;;;5037690;28;20029;-77
2023/09/27 01:15:38;;;;;;;5.65;3.03;;;14.30;99.90;;;;;;5038490;28;20017;-77
2023/09/27 01:18:04;;;;;;;5.78;3.42;;;14.40;99.90;;;;;;5037980;28;20017;-77
2023/09/27 01:20:32;;;;;;;8.27;3.90;;;14.40;99.90;;;;;;5037839;28;20030;-77
2023/09/27 01:22:58;;;;;;;6.68;3.80;;;14.30;99.90;;;;;;5037538;28;20026;-77
2023/09/27 01:25:31;;;;;;;8.07;3.75;;;14.20;99.90;;;;;;5038321;28;20044;-77
2023/09/27 01:28:07;;;;;;;8.35;3.08;;;14.10;99.90;;;;;;5038608;28;20033;-77
2023/09/27 01:30:33;;;;;;;4.80;3.72;;;14.10;99.90;;;;;;5037317;28;20032;-77
2023/09/27 01:33:07;;;;;;;6.50;3.50;;;14.00;99.90;;;;;;5038224;28;20013;-77
2023/09/27 01:35:40;;;;;;;6.00;3.13;;;13.90;99.90;;;;;;5038596;28;20029;-77
2023/09/27 01:38:06;;;;;;;4.47;3.20;;;13.70;99.90;;;;;;5038143;28;20021;-77
2023/09/27 01:40:35;;;;;;;6.63;3.03;;;13.80;99.90;;;;;;5037124;28;20083;-77
2023/09/27 01:43:02;;;;;;;4.32;3.30;;;13.80;99.90;;;;;;5037005;28;20026;-77
2023/09/27 01:45:29;;;;;;;9.35;3.28;;;13.90;99.90;;;;;;5037822;28;20045;-77
2023/09/27 01:47:56;;;;;;;6.00;3.30;;;14.00;99.90;;;;;;5037968;28;20029;-77
2023/09/27 01:50:25;;;;;;;5.90;3.53;;;14.10;99.90;;;;;;5037204;28;20029;-77
2023/09/27 01:52:51;;;;;;;4.20;2.90;;;14.00;99.90;;;;;;5037859;28;20091;-77
2023/09/27 01:55:17;;;;;;;5.07;3.38;;;14.10;99.90;;;;;;5036982;28;20060;-77
2023/09/27 01:57:45;;;;;;;6.35;3.47;;;14.20;99.90;;;;;;5037914;28;20032;-77
2023/09/27 02:00:14;;;;;;;4.85;3.00;;;14.10;99.90;;;;;;5037752;28;20025;-77
2023/09/27 02:02:40;;;;;;;9.13;3.38;;;14.00;99.90;;;;;;5036617;28;20045;-77
2023/09/27 02:05:06;;;;;;;4.65;2.80;;;13.80;99.90;;;;;;5036759;28;20018;-77
2023/09/27 02:07:31;;;;;;;5.45;3.15;;;13.60;99.90;;;;;;5036703;28;20053;-77
2023/09/27 02:09:57;;;;;;;6.35;3.05;;;13.50;99.90;;;;;;5037857;28;20056;-77
2023/09/27 02:12:23;;;;;;;6.35;3.05;;;13.50;99.90;;;;;;5036642;28;20064;-66
2023/09/27 02:14:48;;;;;;;4.78;3.05;;;13.40;99.90;;;;;;5037688;28;20106;-65
2023/09/27 02:17:14;;;;;;;6.82;3.45;;;13.40;99.90;;;;;;5037782;28;20048;-65
2023/09/27 02:19:39;;;;;;;3.38;2.92;;;13.50;99.90;;;;;;5036151;28;20037;-65
2023/09/27 02:22:06;;;;;;;4.30;3.17;;;13.60;99.90;;;;;;5037272;28;20111;-66
2023/09/27 02:24:31;;;;;;;4.43;3.13;;;13.60;99.90;;;;;;5036485;28;20028;-65
2023/09/27 02:26:57;;;;;;;8.85;3.88;;;13.60;99.90;;;;;;5037411;28;20025;-65
2023/09/27 02:29:23;;;;;;;4.30;2.88;;;13.70;99.90;;;;;;5036574;28;20141;-66
2023/09/27 02:31:48;;;;;;;6.50;3.40;;;13.70;99.90;;;;;;5036390;28;20094;-65
2023/09/27 02:34:14;;;;;;;5.78;3.50;;;13.70;99.90;;;;;;5036370;28;20029;-65
2023/09/27 02:36:41;;;;;;;6.95;3.85;;;13.80;99.90;;;;;;5036251;28;20136;-66
2023/09/27 02:39:07;;;;;;;6.35;4.18;;;13.70;99.90;;;;;;5036102;28;20054;-65
2023/09/27 02:41:33;;;;;;;8.93;4.45;;;13.80;99.90;;;;;;5036647;28;20018;-65
2023/09/27 02:43:59;;;;;;;8.23;3.80;;;13.70;99.90;;;;;;5036281;28;20048;-65
2023/09/27 02:46:25;;;;;;;5.22;2.90;;;13.60;99.90;;;;;;5037497;28;20022;-65
2023/09/27 02:48:50;;;;;;;4.93;3.30;;;13.50;99.90;;;;;;5037358;28;20029;-65
2023/09/27 02:51:16;;;;;;;5.32;3.55;;;13.50;99.90;;;;;;5036397;28;20036;-65
2023/09/27 02:53:42;;;;;;;7.00;3.80;;;13.50;99.90;;;;;;5036955;28;20053;-65
2023/09/27 02:56:08;;;;;;;4.32;3.25;;;13.40;99.90;;;;;;5036343;28;20057;-65
2023/09/27 02:58:34;;;;;;;6.93;3.83;;;13.40;99.90;;;;;;5035935;28;20033;-65
2023/09/27 03:01:00;;;;;;;6.53;3.78;;;13.30;99.90;;;;;;5037194;28;20029;-66
2023/09/27 03:03:27;;;;;;;7.50;4.10;;;13.30;99.90;;;;;;5036740;28;20027;-65
2023/09/27 03:05:53;;;;;;;5.97;3.50;;;13.20;99.90;;;;;;5036732;28;20021;-65
2023/09/27 03:08:18;;;;;;;5.13;4.00;;;13.20;99.90;;;;;;5036880;28;20121;-65
2023/09/27 03:10:44;;;;;;;4.85;3.42;;;13.30;99.90;;;;;;5035639;28;20056;-66
2023/09/27 03:13:09;;;;;;;7.47;4.18;;;13.50;99.90;;;;;;5035933;28;20036;-65
2023/09/27 03:15:38;;;;;;;13.05;4.53;;;13.50;99.90;;;;;;5036703;28;20021;-65
2023/09/27 03:18:04;;;;;;;5.93;4.20;;;13.50;99.90;;;;;;5036756;28;20073;-66
2023/09/27 03:20:31;;;;;;;8.60;4.68;;;13.60;99.90;;;;;;5035810;28;20064;-65
2023/09/27 03:22:57;;;;;;;7.10;3.95;;;13.60;99.90;;;;;;5036567;28;20014;-66
2023/09/27 03:25:22;;;;;;;11.18;4.95;;;13.60;99.90;;;;;;5035820;28;20029;-65
2023/09/27 03:27:48;;;;;;;8.35;4.65;;;13.50;99.90;;;;;;5036593;28;20028;-66
2023/09/27 03:30:14;;;;;;;10.57;4.85;;;13.50;99.90;;;;;;5036577;28;20022;-65
2023/09/27 03:32:40;;;;;;;8.32;4.75;;;13.50;99.90;;;;;;5039211;28;20029;-65
2023/09/27 03:35:07;;;;;;;8.02;4.40;;;13.50;99.90;;;;;;5039681;28;20039;-66
2023/09/27 03:37:34;;;;;;;8.50;4.93;;;13.50;99.90;;;;;;5039499;28;20036;-66
2023/09/27 03:40:01;;;;;;;7.20;4.50;;;13.40;99.90;;;;;;5040199;28;20033;-65
2023/09/27 03:42:29;;;;;;;8.75;4.90;;;12.90;99.90;;;;;;5040401;28;20025;-65
2023/09/27 03:44:55;;;;;;;7.50;5.05;;;12.90;99.90;;;;;;5040610;28;20027;-66
2023/09/27 03:47:21;;;;;;;7.10;5.00;;;12.90;99.90;;;;;;5040240;28;20025;-65
2023/09/27 03:49:46;;;;;;;7.00;4.20;;;13.20;99.90;;;;;;5040170;28;20025;-65
2023/09/27 03:52:13;;;;;;;9.95;4.65;;;13.30;99.90;;;;;;5040093;28;20032;-65
2023/09/27 03:54:39;;;;;;;8.35;4.78;;;13.20;99.90;;;;;;5040382;28;20029;-65
2023/09/27 03:57:05;;;;;;;9.23;5.40;;;13.20;99.90;;;;;;5040565;28;20025;-66
2023/09/27 03:59:30;;;;;;;7.03;4.78;;;13.20;99.90;;;;;;5038948;28;20025;-65
2023/09/27 04:01:56;;;;;;;6.72;4.22;;;13.20;99.90;;;;;;5039998;28;20037;-65
2023/09/27 04:04:21;;;;;;;6.40;5.00;;;13.20;99.90;;;;;;5039930;28;20038;-65
2023/09/27 04:06:49;;;;;;;8.85;5.00;;;13.10;99.90;;;;;;5039128;28;20073;-65
2023/09/27 04:09:14;;;;;;;7.03;4.85;;;13.10;99.90;;;;;;5040417;28;20028;-65
2023/09/27 04:11:40;;;;;;;9.25;5.15;;;13.10;99.90;;;;;;5039873;28;20041;-65
2023/09/27 04:14:07;;;;;;;8.90;5.75;;;13.10;99.90;;;;;;5039702;28;20108;-65
2023/09/27 04:16:33;;;;;;;19.23;6.10;;;13.00;99.90;;;;;;5039734;28;20026;-65
2023/09/27 04:18:58;;;;;;;9.75;6.63;;;12.90;99.90;;;;;;5038588;28;20039;-65
2023/09/27 04:21:25;;;;;;;13.63;6.22;;;12.90;99.90;;;;;;5039600;28;20022;-65
2023/09/27 04:23:55;;;;;;;9.93;5.85;;;12.90;99.90;;;;;;5039449;28;20032;-65
2023/09/27 04:26:21;;;;;;;15.32;6.68;;;12.90;99.90;;;;;;5039861;28;20085;-65
2023/09/27 04:28:47;;;;;;;19.85;7.25;;;12.90;99.90;;;;;;5039413;28;20053;-65
2023/09/27 04:31:12;;;;;;;18.60;6.50;;;12.80;99.90;;;;;;5039259;28;20022;-65
2023/09/27 04:33:41;;;;;;;18.77;6.40;;;12.80;99.90;;;;;;5038455;28;20032;-65
2023/09/27 04:36:06;;;;;;;13.43;6.85;;;12.80;99.90;;;;;;5039318;28;20083;-65
2023/09/27 04:38:32;;;;;;;14.50;6.53;;;12.90;99.90;;;;;;5038280;28;20033;-65
2023/09/27 04:40:57;;;;;;;10.15;6.05;;;12.90;99.90;;;;;;5038252;28;20021;-65
2023/09/27 04:43:23;;;;;;;9.70;5.97;;;12.90;99.90;;;;;;5039236;28;20033;-65
2023/09/27 04:45:49;;;;;;;11.68;6.28;;;12.90;99.90;;;;;;5039086;28;20022;-65
2023/09/27 04:48:15;;;;;;;11.02;5.82;;;12.80;99.90;;;;;;5038139;28;20025;-65
2023/09/27 04:50:40;;;;;;;8.32;5.97;;;12.70;99.90;;;;;;5039267;28;20104;-65
2023/09/27 04:53:06;;;;;;;16.25;7.28;;;12.80;99.90;;;;;;5038191;28;20025;-65
2023/09/27 04:55:31;;;;;;;13.32;5.85;;;12.80;99.90;;;;;;5039153;28;20113;-65
2023/09/27 04:57:57;;;;;;;42.88;8.70;;;12.90;99.90;;;;;;5038391;28;20029;-65
2023/09/27 05:00:22;;;;;;;50.05;8.07;;;13.00;99.90;;;;;;5039065;28;20040;-65
2023/09/27 05:02:50;;;;;;;14.70;6.35;;;12.90;99.90;;;;;;5037845;28;20021;-65
2023/09/27 05:05:16;;;;;;;18.85;6.60;;;13.00;99.90;;;;;;5037823;28;20056;-65
2023/09/27 05:07:41;;;;;;;17.75;5.93;;;13.10;99.90;;;;;;5037751;28;20048;-65
2023/09/27 05:10:07;;;;;;;16.13;6.85;;;13.20;99.90;;;;;;5038683;28;20081;-66
2023/09/27 05:12:33;;;;;;;33.60;7.07;;;13.20;99.90;;;;;;5038589;28;20030;-65
2023/09/27 05:14:58;;;;;;;10.80;6.40;;;13.20;99.90;;;;;;5038608;28;20033;-65
2023/09/27 05:17:25;;;;;;;12.45;7.15;;;13.20;99.90;;;;;;5038847;28;20034;-65
2023/09/27 05:19:50;;;;;;;20.08;7.15;;;13.10;99.90;;;;;;5038373;28;20032;-65
2023/09/27 05:22:19;;;;;;;15.50;7.07;;;13.10;99.90;;;;;;5037535;28;20025;-65
2023/09/27 05:24:45;;;;;;;20.75;6.40;;;13.00;99.90;;;;;;5038655;28;20024;-65
2023/09/27 05:27:11;;;;;;;19.02;7.00;;;13.00;99.90;;;;;;5038491;28;20028;-65
2023/09/27 05:29:36;;;;;;;24.75;6.75;;;13.20;99.90;;;;;;5037773;28;20030;-65
2023/09/27 05:32:02;;;;;;;19.75;6.47;;;13.20;99.90;;;;;;5038193;28;20116;-65
2023/09/27 05:34:30;;;;;;;13.30;6.20;;;13.20;99.90;;;;;;5037330;28;20025;-65
2023/09/27 05:36:55;;;;;;;16.75;5.82;;;13.20;99.90;;;;;;5038158;28;20025;-66
2023/09/27 05:39:22;;;;;;;15.23;6.35;;;13.30;99.90;;;;;;5038279;28;20148;-65
2023/09/27 05:41:47;;;;;;;13.82;5.97;;;13.30;99.90;;;;;;5038165;28;20104;-65
2023/09/27 05:44:13;;;;;;;19.73;5.90;;;13.10;99.90;;;;;;5037115;28;20048;-66
2023/09/27 05:46:40;;;;;;;13.25;6.53;;;13.10;99.90;;;;;;5038305;28;20083;-65
2023/09/27 05:49:09;;;;;;;22.10;6.22;;;13.20;99.90;;;;;;5036947;28;20057;-65
2023/09/27 05:51:35;;;;;;;12.38;6.13;;;13.20;99.90;;;;;;5037754;28;20021;-65
2023/09/27 05:54:01;;;;;;;16.35;6.68;;;13.30;99.90;;;;;;5036803;28;20119;-66
2023/09/27 05:56:28;;;;;;;12.32;5.63;;;13.30;99.90;;;;;;5036845;28;20110;-65
2023/09/27 05:58:54;;;;;;;12.60;5.47;;;13.30;99.90;;;;;;5036800;28;20030;-65
2023/09/27 06:01:20;;;;;;;14.43;6.40;;;13.30;99.90;;;;;;5036738;28;20152;-66
2023/09/27 06:03:46;;;;;;;11.70;5.35;;;13.40;99.90;;;;;;5037580;28;20018;-66
2023/09/27 06:06:12;;;;;;;11.25;5.63;;;13.40;99.90;;;;;;5036684;28;20022;-65
2023/09/27 06:08:38;;;;;;;15.13;6.05;;;13.30;99.90;;;;;;5037371;28;20021;-65
2023/09/27 06:11:03;;;;;;;30.42;6.60;;;13.20;99.90;;;;;;5037772;28;20112;-66
2023/09/27 06:13:29;;;;;;;15.35;6.75;;;13.10;99.90;;;;;;5037732;28;20100;-65
2023/09/27 06:15:55;;;;;;;13.07;6.25;;;13.10;99.90;;;;;;5037328;28;20025;-65
2023/09/27 06:18:24;;;;;;;41.22;7.50;;;13.10;99.90;;;;;;5037494;28;20017;-65
2023/09/27 06:20:50;;;;;;;20.35;6.53;;;13.00;99.90;;;;;;5036417;28;20018;-66
2023/09/27 06:23:16;;;;;;;34.33;7.43;;;12.80;99.90;;;;;;5037295;28;20014;-65
2023/09/27 06:25:46;;;;;;;52.53;7.82;;;12.70;99.90;;;;;;5036502;28;20028;-65
2023/09/27 06:28:13;;;;;;;11.85;5.97;;;12.60;99.90;;;;;;5037604;28;20022;-65
2023/09/27 06:30:40;;;;;;;9.90;5.80;;;12.60;99.90;;;;;;5036304;28;20029;-65
2023/09/27 06:33:06;;;;;;;16.67;5.53;;;12.70;99.90;;;;;;5036237;28;20025;-65
2023/09/27 06:35:32;;;;;;;14.63;6.03;;;12.70;99.90;;;;;;5036350;28;20029;-65
2023/09/27 06:38:00;;;;;;;31.55;6.85;;;12.60;99.90;;;;;;5037151;28;20085;-66
2023/09/27 06:40:26;;;;;;;19.00;6.97;;;12.70;99.90;;;;;;5037033;28;20032;-66
2023/09/27 06:42:52;;;;;;;20.50;7.35;;;12.90;99.90;;;;;;5036444;28;20026;-66
2023/09/27 06:45:18;;;;;;;23.30;7.13;;;13.00;99.90;;;;;;5037065;28;20077;-65
2023/09/27 06:47:45;;;;;;;12.02;7.05;;;13.00;99.90;;;;;;5036154;28;20025;-65
2023/09/27 06:50:11;;;;;;;17.27;6.38;;;13.00;99.90;;;;;;5036930;28;20029;-65
2023/09/27 06:52:39;;;;;;;14.35;5.93;;;13.00;99.90;;;;;;5036862;28;20037;-65
2023/09/27 06:55:10;;;;;;;27.40;7.22;;;12.90;99.90;;;;;;5037028;28;20030;-65
2023/09/27 06:57:37;;;;;;;10.30;6.25;;;13.00;99.90;;;;;;5036896;28;20021;-65
2023/09/27 07:00:09;;;;;;;11.95;6.22;;;13.00;99.90;;;;;;5037114;28;20031;-66
2023/09/27 07:02:34;;;;;;;;;;;13.10;99.90;;;;;;5037157;28;20014;-66
2023/09/27 07:05:00;;;;;;;14.75;6.45;;;13.10;99.90;;;;;;5037199;28;19909;-65
2023/09/27 07:07:25;;;;;;;18.00;6.88;;;13.10;99.90;;;;;;5039197;28;20022;-65
2023/09/27 07:09:51;;;;;;;18.58;7.00;;;13.00;99.90;;;;;;5040927;28;20037;-66
2023/09/27 07:12:18;;;;;;;12.82;6.53;;;13.30;99.90;;;;;;5041070;28;20033;-66
2023/09/27 07:14:43;;;;;;;18.02;7.07;;;13.50;99.90;;;;;;5040845;28;20049;-66
2023/09/27 07:17:09;;;;;;;13.13;7.25;;;13.80;99.90;;;;;;5040074;28;20025;-66
2023/09/27 07:19:34;;;;;;;14.65;7.00;;;13.90;99.90;;;;;;5039997;28;20112;-66
2023/09/27 07:22:01;;;;;;;14.85;7.20;;;13.90;99.90;;;;;;5039720;28;20084;-66
2023/09/27 07:24:30;;;;;;;12.10;7.10;;;14.00;99.90;;;;;;5039997;28;20032;-66
2023/09/27 07:26:55;;;;;;;15.40;7.68;;;13.90;99.90;;;;;;5039793;28;20022;-66
2023/09/27 07:29:21;;;;;;;15.05;8.40;;;13.70;99.90;;;;;;5040071;28;20029;-66
2023/09/27 07:31:46;;;;;;;14.05;7.35;;;13.50;99.90;;;;;;5040002;28;20071;-65
2023/09/27 07:34:12;;;;;;;15.10;8.20;;;13.50;99.90;;;;;;5040778;28;20032;-65
2023/09/27 07:36:37;;;;;;;14.15;7.75;;;13.60;99.90;;;;;;5039443;28;20116;-65
2023/09/27 07:39:05;;;;;;;14.45;7.70;;;13.30;99.90;;;;;;5039738;28;20021;-65
2023/09/27 07:41:31;;;;;;;12.85;7.10;;;13.30;99.90;;;;;;5040582;28;20093;-66
2023/09/27 07:43:57;;;;;;;10.07;6.57;;;13.50;99.90;;;;;;5039473;28;20063;-66
2023/09/27 07:46:23;;;;;;;16.73;8.27;;;13.80;99.90;;;;;;5039632;28;20022;-66
2023/09/27 07:48:48;;;;;;;15.05;7.47;;;14.00;99.90;;;;;;5039387;28;20025;-66
2023/09/27 07:51:18;;;;;;;11.25;6.72;;;14.20;99.90;;;;;;5039221;28;20034;-66
2023/09/27 07:53:43;;;;;;;10.57;6.63;;;14.30;99.90;;;;;;5040051;28;20022;-65
2023/09/27 07:56:18;;;;;;;10.07;6.40;;;14.40;99.90;;;;;;5040499;28;20026;-66
2023/09/27 07:58:44;;;;;;;9.95;5.97;;;14.50;99.90;;;;;;5039975;28;20039;-66
2023/09/27 08:01:12;;;;;;;9.05;5.43;;;14.60;99.90;;;;;;5040007;28;20021;-66
2023/09/27 08:03:38;;;;;;;8.65;5.65;;;14.80;99.90;;;;;;5040002;28;20021;-66
2023/09/27 08:06:04;;;;;;;8.60;5.40;;;15.00;99.90;;;;;;5038971;28;20068;-66
2023/09/27 08:08:30;;;;;;;10.77;6.50;;;15.10;99.90;;;;;;5039910;28;20026;-66
2023/09/27 08:11:00;;;;;;;11.50;5.97;;;15.00;99.90;;;;;;5039896;28;20085;-66
2023/09/27 08:13:28;;;;;;;11.93;6.35;;;14.90;99.90;;;;;;5040034;28;20018;-77
2023/09/27 08:15:53;;;;;;;9.05;6.40;;;14.70;99.90;;;;;;5039112;28;20021;-77
2023/09/27 08:18:19;;;;;;;7.47;5.72;;;14.80;99.90;;;;;;5038641;28;20098;-77
2023/09/27 08:20:45;;;;;;;11.65;6.28;;;15.00;99.90;;;;;;5039565;28;20060;-77
2023/09/27 08:23:11;;;;;;;9.60;6.03;;;15.00;99.90;;;;;;5038658;28;20032;-77
2023/09/27 08:25:38;;;;;;;9.55;5.72;;;15.10;99.90;;;;;;5038735;28;20018;-77
2023/09/27 08:28:05;;;;;;;9.07;6.63;;;15.20;99.90;;;;;;5038587;28;20029;-77
2023/09/27 08:30:31;;;;;;;11.07;6.53;;;15.00;99.90;;;;;;5039665;28;20036;-77
2023/09/27 08:32:57;;;;;;;10.23;6.85;;;15.00;99.90;;;;;;5038585;28;20030;-77
2023/09/27 08:35:23;;;;;;;8.32;5.72;;;15.10;99.90;;;;;;5038700;28;20097;-77
2023/09/27 08:37:48;;;;;;;9.38;6.13;;;15.30;99.90;;;;;;5038449;28;20116;-77
2023/09/27 08:40:15;;;;;;;7.90;6.10;;;15.40;99.90;;;;;;5038317;28;20030;-77
2023/09/27 08:42:42;;;;;;;9.13;6.30;;;15.40;99.90;;;;;;5038259;28;20083;-76
2023/09/27 08:45:12;;;;;;;10.85;6.85;;;15.40;99.90;;;;;;5039560;28;20025;-77
2023/09/27 08:47:44;;;;;;;9.55;6.00;;;15.50;99.90;;;;;;5039349;28;20018;-77
2023/09/27 08:50:14;;;;;;;11.55;6.25;;;15.50;99.90;;;;;;5038207;28;20021;-78
2023/09/27 08:52:50;;;;;;;9.05;5.60;;;15.70;99.90;;;;;;5038033;28;20026;-77
2023/09/27 08:55:18;;;;;;;11.00;6.10;;;15.90;99.90;;;;;;5039021;28;20025;-76
2023/09/27 08:57:49;;;;;;;10.77;5.32;;;16.10;99.90;;;;;;5038131;28;20032;-77
2023/09/27 09:00:20;;;;;;;10.27;7.03;;;16.30;99.90;;;;;;5037914;28;20055;-77
2023/09/27 09:02:49;;;;;;;12.35;6.60;;;16.50;99.90;;;;;;5037925;28;20053;-77
2023/09/27 09:05:16;;;;;;;6.43;5.25;;;16.60;99.90;;;;;;5038953;28;20017;-77
2023/09/27 09:07:41;;;;;;;9.60;6.72;;;16.80;99.90;;;;;;5038128;28;20033;-77
2023/09/27 09:10:13;;;;;;;9.77;5.63;;;16.90;99.90;;;;;;5037843;28;20026;-77
2023/09/27 09:12:40;;;;;;;13.05;6.53;;;17.00;99.90;;;;;;5037900;28;20041;-77
2023/09/27 09:15:06;;;;;;;12.82;6.03;;;17.10;99.90;;;;;;5038790;28;20029;-77
2023/09/27 09:17:34;;;;;;;8.15;5.82;;;17.20;99.90;;;;;;5037694;28;20103;-76
2023/09/27 09:20:27;;;;;;;10.60;5.53;;;17.30;99.90;;;;;;5037619;28;20033;-77
2023/09/27 09:22:57;;;;;;;12.05;5.53;;;17.50;99.90;;;;;;5038413;28;20017;-77
2023/09/27 09:25:23;;;;;;;9.77;5.25;;;17.50;99.90;;;;;;5038458;28;20013;-77
2023/09/27 09:28:03;;;;;;;10.10;5.75;;;17.70;99.90;;;;;;5038483;28;20014;-78
2023/09/27 09:30:39;;;;;;;10.27;5.38;;;17.80;99.90;;;;;;5036806;28;20026;-77
2023/09/27 09:33:28;;;;;;;18.17;5.40;;;18.20;99.90;;;;;;5038340;28;20100;-77
2023/09/27 09:35:55;;;;;;;11.13;4.72;;;18.30;99.90;;;;;;5037359;28;20030;-77
2023/09/27 09:38:26;;;;;;;8.00;4.57;;;18.50;99.90;;;;;;5038284;28;20056;-77
2023/09/27 09:41:00;;;;;;;11.70;5.80;;;18.60;99.90;;;;;;5038076;28;20027;-78
2023/09/27 09:43:36;;;;;;;8.02;5.50;;;18.80;99.90;;;;;;5037241;28;20027;-77
2023/09/27 09:46:06;;;;;;;11.38;5.43;;;18.80;99.90;;;;;;5037106;28;20026;-77
2023/09/27 09:48:35;;;;;;;9.48;4.88;;;19.00;99.90;;;;;;5038003;28;20017;-78
2023/09/27 09:51:05;;;;;;;8.02;5.18;;;19.00;99.90;;;;;;5037871;28;20079;-78
2023/09/27 09:53:36;;;;;;;9.52;5.75;;;19.40;99.90;;;;;;5038126;28;20032;-77
2023/09/27 09:56:03;;;;;;;10.80;5.18;;;19.50;99.90;;;;;;5036999;28;20041;-77
2023/09/27 09:58:37;;;;;;;8.35;4.90;;;19.60;99.90;;;;;;5037713;28;20056;-77
2023/09/27 10:01:03;;;;;;;8.38;4.75;;;19.70;99.90;;;;;;5037564;28;20116;-77
2023/09/27 10:03:33;;;;;;;12.77;4.85;;;19.90;99.90;;;;;;5037565;28;20022;-78
2023/09/27 10:06:01;;;;;;;8.00;5.00;;;20.10;99.90;;;;;;5037143;28;20109;-77
2023/09/27 10:08:34;;;;;;;8.23;4.32;;;20.30;99.90;;;;;;5037094;28;20026;-77
2023/09/27 10:11:03;;;;;;;5.72;4.20;;;20.50;99.90;;;;;;5037885;28;20029;-78
2023/09/27 10:13:32;;;;;;;6.65;4.00;;;20.50;99.90;;;;;;5037370;28;20026;-78
2023/09/27 10:15:58;;;;;;;6.80;4.80;;;20.60;99.90;;;;;;5036628;28;20026;-77
2023/09/27 10:18:24;;;;;;;10.85;3.97;;;20.70;99.90;;;;;;5037081;28;20083;-77
2023/09/27 10:21:04;;;;;;;5.07;3.78;;;20.60;99.90;;;;;;5036921;28;20022;-77
2023/09/27 10:23:35;;;;;;;6.47;4.65;;;20.80;99.90;;;;;;5036908;28;20048;-78
2023/09/27 10:26:19;;;;;;;6.55;4.88;;;20.60;99.90;;;;;;5037321;28;20033;-77
2023/09/27 10:29:16;;;;;;;6.85;4.22;;;20.60;99.90;;;;;;5037810;28;20017;-77
2023/09/27 10:31:55;;;;;;;6.55;3.75;;;20.60;99.90;;;;;;5036366;28;20025;-77
2023/09/27 10:34:27;;;;;;;5.03;4.15;;;20.80;99.90;;;;;;5037157;28;20112;-77
2023/09/27 10:36:53;;;;;;;7.78;3.72;;;21.10;99.90;;;;;;5037298;28;20028;-77
2023/09/27 10:39:19;;;;;;;5.40;3.80;;;21.20;99.90;;;;;;5037053;28;20029;-77
2023/09/27 10:41:46;;;;;;;7.50;3.80;;;21.20;99.90;;;;;;5036335;28;20044;-78
2023/09/27 10:44:13;;;;;;;5.03;3.67;;;21.30;99.90;;;;;;5036586;28;20017;-77
2023/09/27 10:46:49;;;;;;;7.20;4.00;;;21.40;99.90;;;;;;5036920;28;20027;-77
2023/09/27 10:49:25;;;;;;;5.70;3.58;;;21.40;99.90;;;;;;5037008;28;20087;-78
2023/09/27 10:51:52;;;;;;;9.02;4.72;;;21.50;99.90;;;;;;5036310;28;20037;-77
2023/09/27 10:54:24;;;;;;;6.30;4.13;;;21.70;99.90;;;;;;5037055;28;20033;-78
2023/09/27 10:56:55;;;;;;;7.45;3.58;;;22.10;99.90;;;;;;5037161;28;20032;-77
2023/09/27 10:59:26;;;;;;;4.45;3.42;;;22.30;99.90;;;;;;5037089;28;20025;-78
2023/09/27 11:01:52;;;;;;;5.82;4.07;;;22.70;99.90;;;;;;5036972;28;20025;-78
2023/09/27 11:04:25;;;;;;;6.75;3.63;;;23.00;99.90;;;;;;5036232;28;20025;-78
2023/09/27 11:06:52;;;;;;;6.68;3.78;;;23.20;99.90;;;;;;5036844;28;20029;-79
2023/09/27 11:09:22;;;;;;;7.03;3.22;;;23.50;99.90;;;;;;5035997;28;20029;-78
2023/09/27 11:11:48;;;;;;;4.10;3.10;;;23.70;99.90;;;;;;5036043;28;20037;-78
2023/09/27 11:14:33;;;;;;;9.25;3.58;;;23.70;99.90;;;;;;5037079;28;20052;-77
2023/09/27 11:17:22;;;;;;;4.50;3.70;;;23.80;99.90;;;;;;5037202;28;20022;-77
2023/09/27 11:19:52;;;;;;;4.05;2.75;;;24.00;99.90;;;;;;5037027;28;20037;-78
2023/09/27 11:22:25;;;;;;;3.20;2.53;;;24.10;99.90;;;;;;5035733;28;20116;-77
2023/09/27 11:24:51;;;;;;;2.63;2.40;;;24.30;99.90;;;;;;5036570;28;20021;-78
2023/09/27 11:27:19;;;;;;;4.63;2.40;;;24.50;99.90;;;;;;5036192;28;20085;-77
2023/09/27 11:29:50;;;;;;;4.22;2.63;;;24.40;99.90;;;;;;5036881;28;20025;-77
2023/09/27 11:32:15;;;;;;;3.53;2.65;;;24.40;99.90;;;;;;5035793;28;20025;-77
2023/09/27 11:34:41;;;;;;;5.65;2.45;;;24.40;99.90;;;;;;5035747;28;20033;-78
2023/09/27 11:37:17;;;;;;;6.53;2.72;;;24.90;99.90;;;;;;5035957;28;20022;-78
2023/09/27 11:39:50;;;;;;;4.60;2.58;;;25.50;99.90;;;;;;5035919;28;20078;-78
2023/09/27 11:42:24;;;;;;;7.35;2.30;;;25.30;99.90;;;;;;5035740;28;20017;-77
2023/09/27 11:45:04;;;;;;;3.80;2.78;;;25.20;99.90;;;;;;5035985;28;20018;-77
2023/09/27 11:47:32;;;;;;;2.73;2.20;;;25.30;99.90;;;;;;5036561;28;20025;-78
2023/09/27 11:49:57;;;;;;;3.72;2.42;;;25.40;99.90;;;;;;5035765;28;20026;-77
2023/09/27 11:52:23;;;;;;;2.63;2.00;;;25.40;99.90;;;;;;5036127;28;20036;-77
2023/09/27 11:54:49;;;;;;;3.25;1.88;;;25.30;99.90;;;;;;5039193;28;20026;-77
2023/09/27 11:57:14;;;;;;;5.25;2.58;;;25.30;99.90;;;;;;5040315;28;20036;-78
2023/09/27 11:59:40;;;;;;;3.20;1.98;;;25.30;99.90;;;;;;5039393;28;20033;-77
2023/09/27 12:02:08;;;;;;;2.92;2.28;;;25.30;99.90;;;;;;5040241;28;20021;-77
2023/09/27 12:04:34;;;;;;;3.03;2.05;;;25.60;99.90;;;;;;5039879;28;20028;-78
2023/09/27 12:06:59;;;;;;;4.10;2.10;;;25.70;99.90;;;;;;5039552;28;20034;-78
2023/09/27 12:09:25;;;;;;;2.90;2.17;;;25.70;99.90;;;;;;5039251;28;20034;-77
2023/09/27 12:11:50;;;;;;;3.80;2.25;;;25.70;99.90;;;;;;5038723;28;20215;-78
2023/09/27 12:14:16;;;;;;;2.75;2.33;;;26.00;99.90;;;;;;5038937;28;20071;-77
2023/09/27 12:16:41;;;;;;;3.75;2.30;;;26.20;99.90;;;;;;5038846;28;20036;-77
2023/09/27 12:19:07;;;;;;;3.03;2.03;;;26.40;99.90;;;;;;5038743;28;20048;-78
2023/09/27 12:21:35;;;;;;;9.18;2.30;;;27.10;99.90;;;;;;5039552;28;20034;-78
2023/09/27 12:24:02;;;;;;;4.70;1.92;;;27.60;99.90;;;;;;5039643;28;20061;-77
2023/09/27 12:26:29;;;;;;;2.83;2.10;;;27.50;99.90;;;;;;5039037;28;20033;-78
2023/09/27 12:28:55;;;;;;;3.35;2.17;;;28.00;99.90;;;;;;5038590;28;20021;-78
2023/09/27 12:31:21;;;;;;;4.78;2.30;;;29.20;99.90;;;;;;5038584;28;20022;-78
2023/09/27 12:33:47;;;;;;;3.53;2.17;;;29.00;99.90;;;;;;5038511;28;20036;-78
2023/09/27 12:36:12;;;;;;;3.70;2.30;;;29.80;99.90;;;;;;5039510;28;20022;-78
2023/09/27 12:38:38;;;;;;;2.60;2.17;;;29.60;99.90;;;;;;5039204;28;20028;-78
2023/09/27 12:41:07;;;;;;;3.78;2.45;;;29.40;99.90;;;;;;5038337;28;20021;-78
2023/09/27 12:43:33;;;;;;;4.38;2.75;;;28.70;99.90;;;;;;5039122;28;20026;-78